Gaultois, Canada
Current Conditions -  °F | °C
As of 7:00 PM on Thursday 23 Oct 2014 (Local Time) from LFVP Reporting Station
Broken Clouds Broken Clouds  
Wind Chill: 10°   Ceiling: 1500
Heat Index: 10°   Visibility: 6mi
Dew Point:   Wind: 23mph
Humidity: 87%   Direction: 90°E
Pressure: 30.15"   Gusts: NA
Location:  47.6°N, 55.92°W
Report Text: LFVP 232100Z 09020KT 9999 BKN015 BKN110 10/08 Q1021 NOSIG
Loading
Personal Weather Stations






























Interactive Weather Map
Tropical Storm Tracking
New forecast layout! Learn more

10-Day Weather Forecast

Advertisements
Track Severe Weather on mobile